Hauptseite
METAR-TAF:

METAR-TAF

Flughäfen :

Flughafen Alderney

Alderney,

Breite: 49-43N, Länge: 002-12W, Höhe: 71 m

Beobachtung

Neuester Wetterbericht von vor 43 Minuten, um 12:50 UTC
Wind 11 kt aus West
Temperatur 13°C
Luftfeuchtigkeit 88%
Luftdruck 1018 hPa
Sichtweite 10 km oder mehr
Leicht bewölkt in der Höhe von 500 ft

METAR: EGJA 231250Z 28011KT 9999 FEW005 13/11 Q1018

Zeit: 14:33 (13:33 UTC)

Prognose

Neuester Wetterbericht von vor 2 Stunden und 34 Minuten, um 10:59 UTC
Gültige Prognose vom 23 um 12 UTC bis 23 um 21 UTC
Wind 7 kt aus West
Sichtweite 10 km oder mehr
keine Wolken unter 1500 m und keine Kumulonimbus oder Gewitterwolken
Wahrscheinlichkeit 30% :
Zeitweise
vom 23 um 12 UTC bis 23 um 14 UTC
Sichtweite: 2000 m
Durchbrochene Bewölkung in der Höhe weniger als 100 ft
feuchter Dunst

TAF: EGJA 231059Z 2312/2321 27007KT CAVOK PROB30 TEMPO 2312/2314 2000 BR BKN000

Wetterbeobachtungen und Prognosen von mehr als 4000 Flughäfen (METAR und TAF Bericht).

Die verfügbaren Stationen werden durch gelbe und rote Markierungen auf der Karte dargestellt.

Führen Sie die Maus auf sie, um den Namen der Station zu sehen.

Darauf klicken, um die Beobachtung von Wetterbeobachtungen und Prognosen zu sehen.

Um die Karte zu ändern : klicken Sie auf den grünen Tasten mit einem schwarzen Kreuz Zum Vergrößern, auf den grünen Button mit einem Gedankenstrich zu verkleinern, oder auf die grünen Pfeile für benachbarte Karten.


METAR-TAF: